Terminal Aerodrome Forecast
Issued by NWS Denver/Boulder, CO

Home | Current Version | Previous Version | Text Only | Print | Product List | Glossary On
Versions: 1 2 3 4 5 6 7 8 9 10 11 12 13 14 15 16 17 18 19 20 21 22 23 24 25 26 27 28 29 30 31 32 33 34
000
FTUS45 KBOU 291737
TAFDEN
TAF
KDEN 291737Z 2918/3024 08008KT P6SM FEW090 BKN200
     FM292200 11010KT P6SM VCTS SCT090CB BKN120
      TEMPO 2922/3001 VRB15G25KT BKN080CB
     FM300200 16008KT P6SM SCT090 BKN120
     FM300600 20008KT P6SM SCT120 BKN200
     FM301400 25008KT P6SM FEW120 SCT200
     FM301700 04008KT P6SM SCT100 BKN150=

USA.gov is the U.S. government's official web portal to all federal, state and local government web resources and services.